Terminal Aerodrome Forecast
Issued by NWS

Home | Current Version | Previous Version | Graphics & Text | Print | Product List | Glossary On
Versions: 1 2 3 4 5 6 7 8 9 10 11 12 13 14 15 16 17 18 19 20 21 22 23 24 25 26 27 28 29 30
896
FTUS43 KABR 210520
TAFATY
TAF
KATY 210520Z 2106/2206 VRB04KT P6SM OVC100
     FM211900 02011KT P6SM OVC070
     FM220200 02012KT P6SM OVC025
     FM220300 02012KT P6SM OVC010=

USA.gov is the U.S. government's official web portal to all federal, state and local government web resources and services.